Time;durP1;ratioP1;P1;durP2;ratioP2;P2;SDS_P1;SDS_P2;PMS_P1;PMS_P2;Temp;Humidity;BMP_temperature;BMP_pressure;BME280_temperature;BME280_humidity;BME280_pressure;Samples;Min_cycle;Max_cycle;Signal;HPM_P1;HPM_P2
2023/05/03 00:00:54;;;;;;;0.40;0.30;;;;;;;15.23;61.18;95679.56;5071705;28;20440;-63
2023/05/03 00:03:24;;;;;;;0.30;0.20;;;;;;;15.44;62.85;95668.56;5071413;28;20434;-64
2023/05/03 00:05:53;;;;;;;0.40;0.20;;;;;;;15.61;65.18;95658.19;5071967;28;20481;-63
2023/05/03 00:08:21;;;;;;;0.60;0.30;;;;;;;15.65;65.73;95659.19;5072062;28;20447;-63
2023/05/03 00:10:50;;;;;;;0.40;0.30;;;;;;;15.64;64.75;95653.03;5072080;28;20477;-63
2023/05/03 00:13:18;;;;;;;0.40;0.37;;;;;;;15.28;67.05;95666.13;5072428;28;20437;-63
2023/05/03 00:15:46;;;;;;;0.40;0.30;;;;;;;14.55;69.75;95657.78;5072083;28;20829;-63
2023/05/03 00:18:14;;;;;;;0.40;0.20;;;;;;;14.79;70.00;95665.78;5072544;28;20477;-63
2023/05/03 00:20:44;;;;;;;8.03;0.60;;;;;;;14.50;70.29;95649.03;5072093;28;20472;-63
2023/05/03 00:23:12;;;;;;;0.60;0.40;;;;;;;14.49;74.76;95653.59;5072185;28;20484;-63
2023/05/03 00:25:41;;;;;;;1.77;1.67;;;;;;;14.48;73.99;95651.22;5071694;28;20554;-62
2023/05/03 00:28:09;;;;;;;0.50;0.37;;;;;;;14.35;73.57;95646.56;5072296;28;20438;-63
2023/05/03 00:30:37;;;;;;;0.60;0.60;;;;;;;14.74;72.24;95655.16;5071709;28;20524;-62
2023/05/03 00:33:06;;;;;;;0.30;0.20;;;;;;;15.11;70.67;95657.84;5071700;28;20805;-62
2023/05/03 00:35:34;;;;;;;0.97;0.30;;;;;;;15.37;72.07;95646.78;5071643;28;20430;-62
2023/05/03 00:38:04;;;;;;;0.37;0.30;;;;;;;15.47;72.65;95643.97;5071900;28;20690;-62
2023/05/03 00:40:32;;;;;;;0.30;0.20;;;;;;;15.03;74.23;95645.13;5071640;28;20891;-62
2023/05/03 00:43:01;;;;;;;0.40;0.30;;;;;;;14.41;70.58;95624.91;5071992;28;20551;-62
2023/05/03 00:45:31;;;;;;;0.60;0.40;;;;;;;14.21;69.71;95641.09;5071919;28;20468;-62
2023/05/03 00:48:00;;;;;;;0.40;0.23;;;;;;;14.13;69.54;95638.25;5072199;28;20516;-62
2023/05/03 00:50:28;;;;;;;0.40;0.30;;;;;;;14.26;68.08;95638.38;5071665;28;21004;-62
2023/05/03 00:52:58;;;;;;;0.40;0.30;;;;;;;13.64;67.36;95583.31;5071239;28;20442;-63
2023/05/03 00:55:31;;;;;;;0.43;0.40;;;;;;;14.08;67.57;95624.97;5071685;28;20473;-62
2023/05/03 00:57:59;;;;;;;0.60;0.37;;;;;;;14.22;68.24;95615.25;5071723;28;20993;-62
2023/05/03 01:00:27;;;;;;;0.40;0.37;;;;;;;14.10;67.25;95612.97;5071801;28;20433;-62
2023/05/03 01:02:56;;;;;;;0.40;0.37;;;;;;;14.16;67.82;95611.84;5071538;28;20488;-62
2023/05/03 01:05:28;;;;;;;0.40;0.30;;;;;;;14.45;68.02;95598.44;5071528;28;20506;-62
2023/05/03 01:08:09;;;;;;;0.40;0.30;;;;;;;14.62;67.00;95575.53;5071261;28;20477;-61
2023/05/03 01:11:01;;;;;;;0.30;0.30;;;;;;;14.77;64.81;95595.88;5071752;28;20961;-61
2023/05/03 01:13:41;;;;;;;1.90;1.80;;;;;;;14.39;65.67;95604.94;5071447;28;20484;-62
2023/05/03 01:16:16;;;;;;;3.43;0.90;;;;;;;14.42;66.18;95607.03;5071294;28;20437;-62
2023/05/03 01:18:47;;;;;;;0.60;0.53;;;;;;;14.42;65.94;95607.78;5071994;28;20564;-61
2023/05/03 01:21:17;;;;;;;0.40;0.30;;;;;;;14.62;67.34;95599.53;5071407;28;20433;-61
2023/05/03 01:23:57;;;;;;;0.40;0.30;;;;;;;14.49;66.18;95602.13;5071306;28;20445;-61
2023/05/03 01:26:28;;;;;;;0.40;0.30;;;;;;;14.69;68.96;95596.53;5057287;28;20560;-61
2023/05/03 01:28:56;;;;;;;0.30;0.20;;;;;;;15.05;81.92;95589.56;5071397;28;20444;-60
2023/05/03 01:31:32;;;;;;;0.50;0.30;;;;;;;14.99;67.69;95582.75;5071246;28;20953;-61
2023/05/03 01:34:14;;;;;;;0.43;0.33;;;;;;;15.24;67.68;95590.38;5071303;28;21019;-61
2023/05/03 01:36:44;;;;;;;0.33;0.27;;;;;;;15.03;64.47;95588.28;5071266;28;20834;-61
2023/05/03 01:39:24;;;;;;;0.60;0.60;;;;;;;15.11;64.41;95591.09;5070974;28;20508;-61
2023/05/03 01:41:55;;;;;;;0.40;0.20;;;;;;;15.32;64.17;95591.56;5071371;28;20438;-61
2023/05/03 01:44:24;;;;;;;0.40;0.20;;;;;;;15.42;63.92;95593.28;5071684;28;20465;-61
2023/05/03 01:46:53;;;;;;;0.30;0.30;;;;;;;15.27;66.79;95594.31;5070490;28;20836;-61
2023/05/03 01:49:21;;;;;;;0.30;0.20;;;;;;;15.40;68.25;95604.28;5071299;28;20495;-61
2023/05/03 01:51:49;;;;;;;0.40;0.30;;;;;;;15.21;69.60;95595.47;5071101;28;20463;-61
2023/05/03 01:54:18;;;;;;;0.40;0.40;;;;;;;14.71;70.06;95593.56;5071124;28;20444;-62
2023/05/03 01:56:46;;;;;;;0.40;0.30;;;;;;;14.92;70.96;95597.53;5071361;28;20440;-61
2023/05/03 01:59:16;;;;;;;0.40;0.40;;;;;;;15.10;69.57;95602.09;5074699;28;20465;-62
2023/05/03 02:01:44;;;;;;;0.40;0.40;;;;;;;14.99;71.20;95604.09;5074791;28;20465;-61
2023/05/03 02:04:12;;;;;;;0.40;0.30;;;;;;;15.00;72.76;95599.56;5074600;28;20823;-61
2023/05/03 02:06:41;;;;;;;0.37;0.20;;;;;;;15.22;70.19;95595.22;5077036;28;20823;-61
2023/05/03 02:09:10;;;;;;;0.30;0.20;;;;;;;15.42;69.99;95599.44;5075908;28;20446;-61
2023/05/03 02:11:38;;;;;;;0.30;0.20;;;;;;;15.56;70.37;95597.59;5074818;28;20437;-61
2023/05/03 02:14:06;;;;;;;0.30;0.20;;;;;;;15.36;73.74;95599.78;5074175;28;20480;-61
2023/05/03 02:16:36;;;;;;;0.33;0.27;;;;;;;15.45;72.36;95603.38;5074828;28;20845;-62
2023/05/03 02:19:06;;;;;;;0.30;0.20;;;;;;;15.54;72.71;95607.00;5074479;28;20469;-61
2023/05/03 02:21:35;;;;;;;0.40;0.30;;;;;;;15.47;72.49;95612.72;5074308;28;20488;-61
2023/05/03 02:24:03;;;;;;;0.50;0.50;;;;;;;15.19;73.53;95601.13;5074197;28;20441;-61
2023/05/03 02:26:32;;;;;;;0.40;0.20;;;;;;;15.13;74.28;95612.16;5074163;28;20499;-62
2023/05/03 02:29:00;;;;;;;0.67;0.40;;;;;;;15.15;76.62;95613.44;5074109;28;20957;-62
2023/05/03 02:31:28;;;;;;;0.30;0.20;;;;;;;14.83;81.61;95616.06;5074422;28;20437;-63
2023/05/03 02:33:58;;;;;;;0.57;0.33;;;;;;;14.30;85.10;95614.59;5073880;28;20957;-63
2023/05/03 02:36:26;;;;;;;0.37;0.27;;;;;;;14.41;88.09;95616.91;5073910;28;20483;-62
2023/05/03 02:38:55;;;;;;;0.40;0.30;;;;;;;14.18;91.38;95622.19;5073900;28;20469;-63
2023/05/03 02:41:23;;;;;;;0.40;0.40;;;;;;;13.48;99.73;95578.44;5073968;28;20437;-64
2023/05/03 02:43:51;;;;;;;0.40;0.30;;;;;;;13.82;100.00;95627.91;5073913;28;20524;-63
2023/05/03 02:46:20;;;;;;;1.27;0.40;;;;;;;13.71;100.00;95638.94;5074017;28;20554;-64
2023/05/03 02:48:48;;;;;;;0.40;0.30;;;;;;;13.85;99.58;95638.00;5073784;28;20442;-63
2023/05/03 02:51:18;;;;;;;0.40;0.30;;;;;;;14.11;92.93;95651.06;5074159;28;21110;-65
2023/05/03 02:53:46;;;;;;;0.30;0.30;;;;;;;14.45;85.69;95662.44;5073974;28;20806;-64
2023/05/03 02:56:14;;;;;;;0.40;0.30;;;;;;;14.30;94.38;95687.38;5073382;28;20436;-65
2023/05/03 02:58:42;;;;;;;0.47;0.37;;;;;;;13.91;97.68;95713.38;5073914;28;20445;-62
2023/05/03 03:01:11;;;;;;;0.40;0.30;;;;;;;13.92;100.00;95742.38;5073626;28;20444;-62
2023/05/03 03:03:39;;;;;;;0.50;0.40;;;;;;;14.09;100.00;95743.84;5074003;28;20441;-62
2023/05/03 03:06:08;;;;;;;0.40;0.40;;;;;;;13.72;92.96;95760.41;5073208;28;20448;-61
2023/05/03 03:08:38;;;;;;;0.50;0.43;;;;;;;13.22;98.39;95766.84;5073614;28;20445;-62
2023/05/03 03:11:07;;;;;;;0.40;0.30;;;;;;;13.31;100.00;95778.50;5072957;28;20438;-61
2023/05/03 03:13:38;;;;;;;1.20;0.40;;;;;;;13.49;95.02;95787.72;5073962;28;20516;-61
2023/05/03 03:16:07;;;;;;;0.40;0.30;;;;;;;13.30;97.85;95785.72;5073786;28;20453;-63
2023/05/03 03:18:35;;;;;;;0.40;0.30;;;;;;;13.89;90.63;95798.09;5073583;28;20444;-61
2023/05/03 03:21:04;;;;;;;0.40;0.30;;;;;;;13.90;92.45;95803.16;5072815;28;21061;-61
2023/05/03 03:23:32;;;;;;;0.40;0.30;;;;;;;13.98;96.95;95815.09;5073076;28;20472;-61
2023/05/03 03:26:02;;;;;;;0.40;0.30;;;;;;;14.13;95.70;95806.19;5072928;28;20469;-61
2023/05/03 03:28:31;;;;;;;0.40;0.20;;;;;;;14.18;100.00;95806.94;5072824;28;20520;-62
2023/05/03 03:30:59;;;;;;;0.40;0.30;;;;;;;13.85;100.00;95813.88;5072742;28;20936;-60
2023/05/03 03:33:27;;;;;;;0.30;0.20;;;;;;;14.06;100.00;95817.19;5072390;28;20813;-60
2023/05/03 03:35:55;;;;;;;0.40;0.30;;;;;;;14.09;98.93;95811.25;5072668;28;20434;-61
2023/05/03 03:38:24;;;;;;;0.50;0.43;;;;;;;14.04;100.00;95818.53;5058933;28;20482;-61
2023/05/03 03:40:53;;;;;;;0.30;0.30;;;;;;;14.09;100.00;95813.94;5072748;28;20565;-61
2023/05/03 03:43:22;;;;;;;0.40;0.30;;;;;;;14.17;100.00;95820.53;5072548;28;21028;-62
2023/05/03 03:45:51;;;;;;;0.30;0.20;;;;;;;14.06;100.00;95821.72;5072746;28;20441;-62
2023/05/03 03:48:19;;;;;;;0.30;0.20;;;;;;;14.04;100.00;95826.53;5072722;28;20466;-62
2023/05/03 03:50:47;;;;;;;0.40;0.30;;;;;;;13.83;100.00;95832.00;5072680;28;20440;-62
2023/05/03 03:53:16;;;;;;;0.40;0.40;;;;;;;13.71;100.00;95839.50;5072614;28;20438;-61
2023/05/03 03:55:44;;;;;;;0.40;0.27;;;;;;;13.87;100.00;95822.38;5072667;28;20489;-61
2023/05/03 03:58:12;;;;;;;1.33;0.60;;;;;;;14.04;100.00;95839.84;5072459;28;20521;-61
2023/05/03 04:00:42;;;;;;;0.30;0.20;;;;;;;13.96;100.00;95830.59;5072363;28;20477;-61
2023/05/03 04:03:11;;;;;;;0.40;0.37;;;;;;;13.53;100.00;95799.44;5072426;28;20499;-60
2023/05/03 04:05:39;;;;;;;0.50;0.50;;;;;;;13.53;100.00;95847.34;5072763;28;20441;-61
2023/05/03 04:08:08;;;;;;;0.40;0.30;;;;;;;13.72;100.00;95854.44;5072194;28;20438;-60
2023/05/03 04:10:36;;;;;;;0.40;0.30;;;;;;;13.45;100.00;95856.72;5072025;28;20441;-60
2023/05/03 04:13:04;;;;;;;0.30;0.30;;;;;;;13.19;100.00;95845.38;5072121;28;20536;-60
2023/05/03 04:15:33;;;;;;;0.40;0.30;;;;;;;13.16;100.00;95840.59;5071749;28;20988;-61
2023/05/03 04:18:02;;;;;;;1.17;0.47;;;;;;;13.12;100.00;95814.81;5071587;28;20480;-60
2023/05/03 04:20:31;;;;;;;0.50;0.50;;;;;;;13.22;100.00;95828.06;5071294;28;20473;-61
2023/05/03 04:23:00;;;;;;;0.40;0.30;;;;;;;13.10;100.00;95835.56;5046304;28;20484;-60
2023/05/03 04:25:30;;;;;;;0.60;0.53;;;;;;;13.11;100.00;95853.91;5071826;28;20473;-61
2023/05/03 04:27:59;;;;;;;0.40;0.40;;;;;;;13.06;100.00;95869.06;5072062;28;20437;-60
2023/05/03 04:30:28;;;;;;;1.13;0.50;;;;;;;12.49;100.00;95858.81;5071754;28;20434;-61
2023/05/03 04:32:57;;;;;;;0.40;0.30;;;;;;;12.33;100.00;95860.69;5072064;28;20587;-61
2023/05/03 04:35:27;;;;;;;0.40;0.30;;;;;;;12.85;100.00;95856.91;5069523;28;20478;-62
2023/05/03 04:37:55;;;;;;;0.50;0.40;;;;;;;13.31;100.00;95850.38;5071754;28;20891;-62
2023/05/03 04:40:24;;;;;;;0.60;0.40;;;;;;;13.22;100.00;95777.50;5070966;28;20564;-61
2023/05/03 04:42:52;;;;;;;0.40;0.40;;;;;;;13.57;100.00;95841.19;5071375;28;20440;-61
2023/05/03 04:45:20;;;;;;;0.40;0.30;;;;;;;13.08;100.00;95840.38;5071309;28;20469;-62
2023/05/03 04:47:49;;;;;;;0.50;0.40;;;;;;;12.99;100.00;95844.63;5071206;28;20524;-62
2023/05/03 04:50:17;;;;;;;0.40;0.30;;;;;;;13.00;100.00;95838.25;5071103;28;20512;-62
2023/05/03 04:52:47;;;;;;;0.70;0.70;;;;;;;13.18;100.00;95843.00;5071238;28;20445;-62
2023/05/03 04:55:15;;;;;;;0.60;0.60;;;;;;;13.18;100.00;95843.00;5071573;28;20429;-63
2023/05/03 04:57:44;;;;;;;0.77;0.77;;;;;;;13.32;100.00;95830.69;5071485;28;20434;-62
2023/05/03 05:00:13;;;;;;;0.40;0.30;;;;;;;12.85;100.00;95828.41;5065085;28;20466;-61
2023/05/03 05:02:42;;;;;;;1.70;0.50;;;;;;;12.67;100.00;95834.34;5064380;28;20491;-62
2023/05/03 05:05:11;;;;;;;0.50;0.50;;;;;;;12.84;100.00;95810.88;5071515;28;21088;-61
2023/05/03 05:07:39;;;;;;;0.50;0.50;;;;;;;12.55;100.00;95834.59;5070727;28;20499;-62
2023/05/03 05:10:10;;;;;;;0.70;0.70;;;;;;;12.63;100.00;95839.38;5071437;28;20433;-61
2023/05/03 05:12:39;;;;;;;0.90;0.70;;;;;;;12.77;100.00;95831.66;5071180;28;20441;-61
2023/05/03 05:15:08;;;;;;;0.50;0.50;;;;;;;12.94;100.00;95820.69;5070880;28;20494;-61
2023/05/03 05:17:36;;;;;;;0.40;0.30;;;;;;;13.31;100.00;95816.56;5070362;28;20477;-61
2023/05/03 05:20:06;;;;;;;0.67;0.67;;;;;;;13.25;100.00;95815.03;5070753;28;20449;-61
2023/05/03 05:22:35;;;;;;;0.70;0.70;;;;;;;13.78;100.00;95824.03;5071098;28;20469;-60
2023/05/03 05:25:04;;;;;;;1.00;0.70;;;;;;;13.64;100.00;95820.38;5071261;28;20469;-60
2023/05/03 05:27:34;;;;;;;0.40;0.30;;;;;;;14.03;100.00;95823.06;5070059;28;20495;-60
2023/05/03 05:30:03;;;;;;;0.83;0.83;;;;;;;14.05;100.00;95823.56;5071439;28;21035;-60
2023/05/03 05:32:32;;;;;;;0.43;0.30;;;;;;;14.11;100.00;95827.81;5073171;28;20508;-61
2023/05/03 05:35:00;;;;;;;0.60;0.60;;;;;;;14.16;100.00;95834.97;5074915;28;20437;-62
2023/05/03 05:37:29;;;;;;;0.50;0.50;;;;;;;14.40;100.00;95827.84;5075308;28;20960;-63
2023/05/03 05:39:57;;;;;;;0.40;0.30;;;;;;;14.42;100.00;95809.72;5074733;28;20445;-61
2023/05/03 05:42:26;;;;;;;0.40;0.30;;;;;;;14.29;100.00;95824.47;5075368;28;20484;-62
2023/05/03 05:44:56;;;;;;;0.40;0.30;;;;;;;14.37;97.21;95801.75;5074975;28;20813;-63
2023/05/03 05:47:24;;;;;;;0.67;0.63;;;;;;;13.75;100.00;95736.66;5075247;28;20445;-63
2023/05/03 05:49:53;;;;;;;0.40;0.30;;;;;;;14.42;100.00;95817.72;5074895;28;20484;-62
2023/05/03 05:52:21;;;;;;;0.60;0.60;;;;;;;14.51;100.00;95816.00;5074523;28;21031;-63
2023/05/03 05:54:50;;;;;;;0.93;0.93;;;;;;;14.50;100.00;95785.06;5074463;28;20448;-63
2023/05/03 05:57:18;;;;;;;0.40;0.30;;;;;;;14.46;98.38;95776.06;5074762;28;20477;-63
2023/05/03 05:59:46;;;;;;;0.40;0.30;;;;;;;14.85;96.14;95805.28;5074632;28;20476;-63
2023/05/03 06:02:17;;;;;;;0.40;0.40;;;;;;;14.84;95.40;95799.13;5074676;28;20527;-63
2023/05/03 06:04:46;;;;;;;0.87;0.50;;;;;;;13.82;95.82;95710.50;5073833;28;20964;-64
2023/05/03 06:07:16;;;;;;;0.53;0.43;;;;;;;15.01;95.86;95759.41;5073930;28;20507;-65
2023/05/03 06:09:45;;;;;;;0.57;0.57;;;;;;;14.89;100.00;95743.03;5073731;28;20516;-64
2023/05/03 06:12:13;;;;;;;0.60;0.60;;;;;;;14.91;97.52;95745.41;5074696;28;20445;-65
2023/05/03 06:14:42;;;;;;;7.30;0.67;;;;;;;15.15;100.00;95794.25;5074605;28;20437;-65
2023/05/03 06:17:30;;;;;;;0.40;0.30;;;;;;;15.31;98.21;95797.50;5072870;28;20434;-65
2023/05/03 06:19:58;;;;;;;0.40;0.40;;;;;;;15.21;98.44;95795.75;5064071;28;20461;-66
2023/05/03 06:22:27;;;;;;;0.30;0.30;;;;;;;15.38;98.42;95793.38;5074359;28;20481;-66
2023/05/03 06:24:55;;;;;;;0.40;0.30;;;;;;;15.50;93.23;95801.03;5073945;28;20485;-67
2023/05/03 06:27:24;;;;;;;0.40;0.40;;;;;;;15.67;93.14;95796.78;5073110;28;20456;-66
2023/05/03 06:29:52;;;;;;;0.40;0.30;;;;;;;15.75;97.03;95798.00;5062420;28;20478;-66
2023/05/03 06:32:22;;;;;;;0.60;0.30;;;;;;;15.73;97.32;95798.28;5071742;28;20524;-66
2023/05/03 06:34:52;;;;;;;0.40;0.30;;;;;;;15.75;91.06;95779.28;5073430;28;20503;-66
2023/05/03 06:37:20;;;;;;;0.40;0.30;;;;;;;15.50;94.19;95785.78;5072233;28;20528;-66
2023/05/03 06:39:49;;;;;;;0.40;0.30;;;;;;;15.81;95.85;95786.16;5073020;28;20434;-66
2023/05/03 06:42:17;;;;;;;0.37;0.23;;;;;;;15.77;92.70;95779.78;5071529;28;21011;-66
2023/05/03 06:44:47;;;;;;;0.40;0.30;;;;;;;15.83;89.18;95781.31;5072959;28;20957;-67
2023/05/03 06:47:15;;;;;;;0.40;0.30;;;;;;;15.83;89.65;95781.31;5072623;28;20817;-66
2023/05/03 06:49:43;;;;;;;0.80;0.47;;;;;;;16.22;88.19;95791.63;5072946;28;20434;-66
2023/05/03 06:52:13;;;;;;;0.37;0.20;;;;;;;16.05;82.91;95794.84;5072948;28;20442;-67
2023/05/03 06:54:42;;;;;;;0.40;0.30;;;;;;;16.17;83.40;95794.38;5072624;28;20441;-71
2023/05/03 06:57:10;;;;;;;5.60;3.67;;;;;;;16.38;100.00;95801.81;5072651;28;20438;-50
2023/05/03 06:59:38;;;;;;;2.43;2.33;;;;;;;16.41;99.09;95803.09;5072582;28;20484;-50
2023/05/03 07:02:07;;;;;;;3.03;1.30;;;;;;;16.28;97.49;95809.19;5072690;28;20496;-50
2023/05/03 07:04:36;;;;;;;1.03;0.87;;;;;;;15.93;95.63;95799.88;5072448;28;20446;-50
2023/05/03 07:07:05;;;;;;;7.20;1.03;;;;;;;15.97;94.82;95802.72;5072723;28;20438;-50
2023/05/03 07:09:35;;;;;;;1.47;1.37;;;;;;;15.83;97.26;95808.84;5072197;28;20434;-49
2023/05/03 07:12:08;;;;;;;0.50;0.50;;;;;;;16.14;96.70;95795.00;5064493;28;21019;-50
2023/05/03 07:14:37;;;;;;;0.40;0.30;;;;;;;16.28;92.02;95791.28;5067805;28;20873;-50
2023/05/03 07:17:05;;;;;;;0.73;0.73;;;;;;;16.71;93.21;95780.38;5072417;28;20532;-50
2023/05/03 07:19:33;;;;;;;0.77;0.73;;;;;;;16.92;92.72;95789.63;5072577;28;20533;-50
2023/05/03 07:22:02;;;;;;;4.83;0.53;;;;;;;16.71;88.03;95716.94;5072446;28;20896;-50
2023/05/03 07:24:30;;;;;;;0.57;0.57;;;;;;;17.35;80.64;95777.50;5072537;28;20434;-68
2023/05/03 07:27:15;;;;;;;1.67;1.57;;;;;;;16.37;81.51;95682.50;5089225;27;20567;-69
2023/05/03 07:29:43;;;;;;;0.67;0.37;;;;;;;17.09;85.85;95773.75;5088892;28;20484;-71
2023/05/03 07:32:12;;;;;;;0.40;0.30;;;;;;;17.00;83.92;95776.31;5089437;28;20444;-68
2023/05/03 07:34:40;;;;;;;0.97;0.53;;;;;;;16.55;87.01;95769.16;5089464;28;20479;-67
2023/05/03 07:37:09;;;;;;;0.50;0.40;;;;;;;17.02;85.09;95778.72;5089215;28;20444;-67
2023/05/03 07:39:37;;;;;;;1.23;0.40;;;;;;;17.60;82.13;95785.03;5088029;28;20502;-66
2023/05/03 07:42:06;;;;;;;0.60;0.30;;;;;;;18.04;76.09;95778.88;5088094;28;20440;-66
2023/05/03 07:44:36;;;;;;;0.47;0.37;;;;;;;17.80;79.68;95778.41;5088319;28;20536;-65
2023/05/03 07:47:04;;;;;;;1.27;1.17;;;;;;;17.65;78.20;95784.09;5088135;28;20864;-65
2023/05/03 07:49:34;;;;;;;0.50;0.40;;;;;;;17.77;77.43;95777.13;5088252;28;20472;-65
2023/05/03 07:52:02;;;;;;;0.40;0.40;;;;;;;17.67;79.35;95768.50;5088449;28;20519;-65
2023/05/03 07:54:31;;;;;;;0.80;0.80;;;;;;;17.26;79.98;95765.09;5088049;28;20532;-64
2023/05/03 07:56:59;;;;;;;0.70;0.60;;;;;;;17.70;79.92;95775.94;5088823;28;20444;-63
2023/05/03 07:59:28;;;;;;;0.80;0.50;;;;;;;18.28;76.82;95781.28;5088364;28;20447;-63
2023/05/03 08:01:57;;;;;;;0.40;0.30;;;;;;;18.62;77.49;95778.81;5088730;28;20456;-62
2023/05/03 08:04:28;;;;;;;1.93;1.60;;;;;;;18.90;76.49;95766.78;5088346;28;20486;-61
2023/05/03 08:07:00;;;;;;;0.50;0.40;;;;;;;19.02;71.57;95769.66;5088477;28;20477;-62
2023/05/03 08:09:28;;;;;;;0.50;0.40;;;;;;;19.83;66.67;95766.53;5088523;28;20436;-62
2023/05/03 08:11:57;;;;;;;1.23;1.23;;;;;;;19.48;69.38;95773.78;5088512;28;21110;-63
2023/05/03 08:14:26;;;;;;;0.37;0.30;;;;;;;19.36;66.75;95781.59;5087809;28;20516;-65
2023/05/03 08:16:54;;;;;;;0.67;0.67;;;;;;;19.47;67.85;95772.19;5088032;28;20852;-64
2023/05/03 08:19:24;;;;;;;2.67;0.83;;;;;;;19.30;69.04;95770.19;5087510;28;20468;-64
2023/05/03 08:21:54;;;;;;;0.40;0.30;;;;;;;19.55;69.44;95776.78;5088122;28;20505;-64
2023/05/03 08:24:23;;;;;;;0.60;0.60;;;;;;;19.38;69.91;95782.13;5087683;28;20493;-63
2023/05/03 08:26:51;;;;;;;0.40;0.30;;;;;;;19.07;72.38;95771.44;5087311;28;20476;-63
2023/05/03 08:29:19;;;;;;;0.50;0.50;;;;;;;18.92;70.62;95780.69;5087725;28;20520;-62
2023/05/03 08:31:48;;;;;;;0.40;0.30;;;;;;;18.59;73.34;95781.34;5087961;28;20441;-63
2023/05/03 08:34:17;;;;;;;0.40;0.30;;;;;;;18.46;73.77;95772.22;5087856;28;20445;-63
2023/05/03 08:36:46;;;;;;;1.47;0.60;;;;;;;18.62;73.82;95772.66;5081352;28;20442;-64
2023/05/03 08:39:15;;;;;;;0.40;0.30;;;;;;;18.69;73.12;95771.13;5064715;28;20477;-65
2023/05/03 08:41:43;;;;;;;0.50;0.30;;;;;;;19.06;69.80;95761.78;5074135;28;20430;-65
2023/05/03 08:44:13;;;;;;;0.50;0.50;;;;;;;17.93;74.41;95777.56;5073731;28;20517;-65
2023/05/03 08:46:43;;;;;;;0.40;0.40;;;;;;;17.62;77.32;95792.75;5075399;28;20468;-65
2023/05/03 08:49:13;;;;;;;0.43;0.43;;;;;;;17.43;78.45;95792.84;5074542;28;20434;-64
2023/05/03 08:51:42;;;;;;;0.40;0.30;;;;;;;17.65;79.59;95787.59;5072790;28;20495;-64
2023/05/03 08:54:12;;;;;;;0.40;0.30;;;;;;;17.95;78.88;95787.97;5074528;28;20441;-64
2023/05/03 08:56:42;;;;;;;0.70;0.40;;;;;;;18.05;78.95;95785.06;5073896;28;20444;-67
2023/05/03 08:59:11;;;;;;;0.40;0.30;;;;;;;18.45;77.75;95781.38;5073256;28;20777;-66
2023/05/03 09:01:40;;;;;;;0.43;0.40;;;;;;;17.20;82.24;95704.69;5049189;28;20440;-67
2023/05/03 09:04:10;;;;;;;0.50;0.40;;;;;;;17.54;82.18;95788.88;5073844;28;20438;-69
2023/05/03 09:06:39;;;;;;;0.40;0.30;;;;;;;17.43;83.31;95778.69;5073942;28;20477;-69
2023/05/03 09:09:08;;;;;;;0.50;0.40;;;;;;;17.48;84.83;95786.59;5073735;28;20528;-70
2023/05/03 09:11:39;;;;;;;1.17;0.40;;;;;;;17.25;88.16;95767.00;5073990;28;20433;-70
2023/05/03 09:14:11;;;;;;;0.40;0.30;;;;;;;17.29;88.22;95762.59;5073833;28;20461;-70
2023/05/03 09:16:40;;;;;;;0.60;0.50;;;;;;;16.72;92.74;95764.00;5074022;28;20437;-70
2023/05/03 09:19:10;;;;;;;0.50;0.40;;;;;;;16.91;91.06;95769.28;5073531;28;20433;-71
2023/05/03 09:21:39;;;;;;;0.60;0.60;;;;;;;16.71;93.74;95761.63;5073988;28;20452;-70
2023/05/03 09:24:14;;;;;;;0.40;0.20;;;;;;;16.86;92.50;95783.56;5074072;28;20818;-71
2023/05/03 09:26:46;;;;;;;0.60;0.60;;;;;;;17.41;87.53;95776.28;5073286;28;20584;-74
2023/05/03 09:29:28;;;;;;;0.67;0.53;;;;;;;17.58;84.19;95781.81;5048523;28;20438;-76
2023/05/03 09:32:01;;;;;;;0.50;0.30;;;;;;;16.76;86.25;95766.91;5073648;28;20438;-77
2023/05/03 09:34:30;;;;;;;0.67;0.60;;;;;;;16.88;88.37;95773.34;5074097;28;20452;-76
2023/05/03 09:36:58;;;;;;;0.50;0.40;;;;;;;17.33;84.97;95773.53;5073288;28;20469;-76
2023/05/03 09:39:27;;;;;;;6.73;0.53;;;;;;;17.15;83.86;95773.31;5073674;28;20491;-75
2023/05/03 09:41:57;;;;;;;0.40;0.30;;;;;;;17.12;85.24;95778.50;5073295;28;20435;-75
2023/05/03 09:44:41;;;;;;;0.60;0.50;;;;;;;16.95;83.76;95763.03;5073331;28;20447;-75
2023/05/03 09:47:11;;;;;;;0.40;0.23;;;;;;;17.48;84.07;95765.16;5049301;28;20564;-76
2023/05/03 09:49:39;;;;;;;0.50;0.50;;;;;;;17.79;81.94;95763.41;5072414;28;20941;-75
2023/05/03 09:52:08;;;;;;;0.50;0.50;;;;;;;17.51;78.99;95762.66;5073784;28;20465;-75
2023/05/03 09:54:37;;;;;;;0.60;0.40;;;;;;;17.58;79.53;95776.47;5073131;28;20465;-75
2023/05/03 09:57:09;;;;;;;0.50;0.40;;;;;;;17.82;75.48;95756.63;5073259;28;20446;-75
2023/05/03 09:59:38;;;;;;;0.40;0.20;;;;;;;18.17;72.14;95764.63;5072876;28;20430;-75
2023/05/03 10:02:08;;;;;;;0.40;0.30;;;;;;;17.97;71.23;95761.63;5072760;28;21005;-75
2023/05/03 10:04:43;;;;;;;0.40;0.30;;;;;;;17.66;70.85;95686.50;5073088;28;20525;-75
2023/05/03 10:07:14;;;;;;;0.90;0.90;;;;;;;17.94;71.40;95760.34;5073319;28;20576;-74
2023/05/03 10:09:44;;;;;;;0.40;0.30;;;;;;;17.75;73.89;95757.06;5073280;28;20434;-75
2023/05/03 10:12:16;;;;;;;0.40;0.30;;;;;;;17.44;72.56;95761.47;5072667;28;20544;-76
2023/05/03 10:14:46;;;;;;;0.40;0.30;;;;;;;16.98;73.24;95757.09;5072874;28;20437;-75
2023/05/03 10:17:18;;;;;;;0.43;0.40;;;;;;;17.05;75.10;95749.44;5073324;28;20429;-76
2023/05/03 10:19:52;;;;;;;1.90;0.30;;;;;;;17.15;75.56;95746.53;5072834;28;20953;-76
2023/05/03 10:22:21;;;;;;;7.43;0.40;;;;;;;17.69;72.39;95760.94;5071812;28;20468;-75
2023/05/03 10:25:08;;;;;;;0.50;0.43;;;;;;;17.86;72.22;95741.53;5072892;28;20437;-74
2023/05/03 10:27:51;;;;;;;0.30;0.30;;;;;;;17.48;73.21;95736.44;5049197;28;20584;-76
2023/05/03 10:30:31;;;;;;;0.50;0.40;;;;;;;17.72;72.63;95737.03;5072721;28;20433;-75
2023/05/03 10:33:20;;;;;;;0.50;0.50;;;;;;;17.41;74.41;95735.28;5072695;28;20437;-76
2023/05/03 10:35:52;;;;;;;0.40;0.30;;;;;;;17.32;75.48;95729.88;5071911;28;20472;-75
2023/05/03 10:38:22;;;;;;;0.57;0.57;;;;;;;17.17;76.03;95668.59;5071839;28;20430;-76
2023/05/03 10:40:52;;;;;;;0.87;0.50;;;;;;;17.47;77.86;95705.41;5072040;28;20495;-77
2023/05/03 10:43:43;;;;;;;0.70;0.70;;;;;;;17.92;73.53;95716.97;5071575;28;20429;-76
2023/05/03 10:46:32;;;;;;;0.40;0.30;;;;;;;17.60;77.35;95714.53;5071450;28;20605;-76
2023/05/03 10:49:18;;;;;;;0.50;0.30;;;;;;;17.10;77.77;95711.84;5071691;28;20443;-77
2023/05/03 10:51:46;;;;;;;0.40;0.33;;;;;;;17.30;78.53;95724.03;5073186;28;20442;-77
2023/05/03 10:54:15;;;;;;;0.40;0.30;;;;;;;17.12;78.43;95716.91;5075685;28;20437;-77
2023/05/03 10:56:52;;;;;;;0.80;0.53;;;;;;;16.84;77.92;95710.00;5079174;28;20452;-76
2023/05/03 10:59:23;;;;;;;0.50;0.50;;;;;;;16.56;81.63;95730.59;5074311;28;20941;-73
2023/05/03 11:01:53;;;;;;;0.40;0.40;;;;;;;16.28;83.94;95702.19;5074485;28;20962;-73
2023/05/03 11:04:36;;;;;;;0.50;0.50;;;;;;;16.63;82.34;95719.50;5073608;28;20433;-73
2023/05/03 11:07:05;;;;;;;0.87;0.57;;;;;;;16.64;83.87;95713.88;5071758;28;20505;-72
2023/05/03 11:09:34;;;;;;;0.40;0.30;;;;;;;16.84;81.61;95707.31;5071222;28;20862;-72
2023/05/03 11:12:07;;;;;;;0.50;0.33;;;;;;;16.51;77.60;95595.00;5072302;28;20520;-73
2023/05/03 11:14:38;;;;;;;0.60;0.37;;;;;;;16.86;77.65;95689.06;5046713;28;20495;-72
2023/05/03 11:17:07;;;;;;;0.50;0.50;;;;;;;17.11;76.94;95683.97;5071842;28;20442;-71
2023/05/03 11:19:35;;;;;;;0.83;0.83;;;;;;;16.54;81.89;95689.97;5071983;28;20438;-71
2023/05/03 11:22:04;;;;;;;0.60;0.40;;;;;;;16.83;82.37;95685.09;5072094;28;20785;-72
2023/05/03 11:24:32;;;;;;;0.70;0.60;;;;;;;16.73;81.91;95676.47;5072328;28;20442;-70
2023/05/03 11:27:01;;;;;;;0.40;0.40;;;;;;;16.79;85.90;95683.31;5071065;28;20480;-70
2023/05/03 11:29:39;;;;;;;0.80;0.80;;;;;;;16.62;86.70;95683.13;5072059;28;20872;-68
2023/05/03 11:32:09;;;;;;;0.50;0.40;;;;;;;15.88;92.37;95627.00;5058267;28;20953;-72
2023/05/03 11:34:39;;;;;;;0.50;0.50;;;;;;;16.36;91.79;95674.78;5071463;28;20441;-71
2023/05/03 11:37:09;;;;;;;0.50;0.40;;;;;;;16.10;93.14;95638.88;5071176;28;20449;-72
2023/05/03 11:39:37;;;;;;;0.80;0.80;;;;;;;16.36;97.58;95643.47;5071557;28;20434;-71
2023/05/03 11:42:06;;;;;;;0.80;0.80;;;;;;;16.36;100.00;95682.81;5045673;28;20441;-68
2023/05/03 11:44:34;;;;;;;0.70;0.57;;;;;;;16.29;100.00;95688.53;5071159;28;20444;-69